sensor_id;sensor_type;location;lat;lon;timestamp;pressure;altitude;pressure_sealevel;temperature;humidity
52249;BME280;38541;48.130;8.378;2024-01-27T00:00:41;94259.38;;;3.79;73.62
52249;BME280;38541;48.130;8.378;2024-01-27T00:03:08;94257.94;;;3.77;73.96
52249;BME280;38541;48.130;8.378;2024-01-27T00:05:34;94262.50;;;3.75;74.57
52249;BME280;38541;48.130;8.378;2024-01-27T00:08:01;94266.50;;;3.77;74.78
52249;BME280;38541;48.130;8.378;2024-01-27T00:10:27;94269.94;;;3.78;74.21
52249;BME280;38541;48.130;8.378;2024-01-27T00:12:54;94261.16;;;3.79;74.09
52249;BME280;38541;48.130;8.378;2024-01-27T00:15:20;94265.47;;;3.71;74.06
52249;BME280;38541;48.130;8.378;2024-01-27T00:17:47;94260.44;;;3.70;74.48
52249;BME280;38541;48.130;8.378;2024-01-27T00:20:14;94264.56;;;3.64;74.12
52249;BME280;38541;48.130;8.378;2024-01-27T00:22:41;94267.16;;;3.64;74.31
52249;BME280;38541;48.130;8.378;2024-01-27T00:25:08;94269.50;;;3.59;74.32
52249;BME280;38541;48.130;8.378;2024-01-27T00:27:34;94269.13;;;3.62;73.90
52249;BME280;38541;48.130;8.378;2024-01-27T00:30:01;94271.94;;;3.61;74.67
52249;BME280;38541;48.130;8.378;2024-01-27T00:32:27;94273.81;;;3.52;73.95
52249;BME280;38541;48.130;8.378;2024-01-27T00:34:54;94275.75;;;3.50;73.92
52249;BME280;38541;48.130;8.378;2024-01-27T00:37:20;94278.47;;;3.41;74.08
52249;BME280;38541;48.130;8.378;2024-01-27T00:39:47;94284.75;;;3.32;73.63
52249;BME280;38541;48.130;8.378;2024-01-27T00:42:14;94283.81;;;3.25;73.06
52249;BME280;38541;48.130;8.378;2024-01-27T00:44:40;94288.66;;;3.28;73.90
52249;BME280;38541;48.130;8.378;2024-01-27T00:47:07;94289.03;;;3.25;73.43
52249;BME280;38541;48.130;8.378;2024-01-27T00:49:33;94295.47;;;3.29;74.13
52249;BME280;38541;48.130;8.378;2024-01-27T00:52:00;94287.75;;;3.21;73.41
52249;BME280;38541;48.130;8.378;2024-01-27T00:54:26;94291.13;;;3.06;72.63
52249;BME280;38541;48.130;8.378;2024-01-27T00:56:53;94291.84;;;3.00;72.85
52249;BME280;38541;48.130;8.378;2024-01-27T00:59:20;94288.00;;;2.96;73.57
52249;BME280;38541;48.130;8.378;2024-01-27T01:01:46;94287.38;;;2.94;73.26
52249;BME280;38541;48.130;8.378;2024-01-27T01:04:13;94281.38;;;2.93;74.13
52249;BME280;38541;48.130;8.378;2024-01-27T01:06:40;94282.50;;;2.91;74.49
52249;BME280;38541;48.130;8.378;2024-01-27T01:09:07;94293.59;;;2.84;74.00
52249;BME280;38541;48.130;8.378;2024-01-27T01:11:33;94301.00;;;2.73;73.26
52249;BME280;38541;48.130;8.378;2024-01-27T01:14:03;94295.34;;;2.69;73.60
52249;BME280;38541;48.130;8.378;2024-01-27T01:16:30;94297.03;;;2.62;73.21
52249;BME280;38541;48.130;8.378;2024-01-27T01:18:56;94297.25;;;2.52;72.88
52249;BME280;38541;48.130;8.378;2024-01-27T01:21:23;94307.69;;;2.43;72.89
52249;BME280;38541;48.130;8.378;2024-01-27T01:23:50;94303.19;;;2.37;72.70
52249;BME280;38541;48.130;8.378;2024-01-27T01:26:16;94301.78;;;2.26;72.63
52249;BME280;38541;48.130;8.378;2024-01-27T01:28:43;94300.22;;;2.17;73.46
52249;BME280;38541;48.130;8.378;2024-01-27T01:31:09;94295.69;;;2.19;74.08
52249;BME280;38541;48.130;8.378;2024-01-27T01:33:36;94299.38;;;2.25;75.08
52249;BME280;38541;48.130;8.378;2024-01-27T01:36:03;94304.25;;;2.20;74.98
52249;BME280;38541;48.130;8.378;2024-01-27T01:38:29;94309.63;;;2.18;75.20
52249;BME280;38541;48.130;8.378;2024-01-27T01:40:56;94305.59;;;2.16;75.46
52249;BME280;38541;48.130;8.378;2024-01-27T01:43:22;94312.03;;;2.20;74.91
52249;BME280;38541;48.130;8.378;2024-01-27T01:45:49;94309.63;;;2.18;74.48
52249;BME280;38541;48.130;8.378;2024-01-27T01:48:17;94309.94;;;2.15;74.71
52249;BME280;38541;48.130;8.378;2024-01-27T01:50:44;94313.72;;;2.12;75.50
52249;BME280;38541;48.130;8.378;2024-01-27T01:53:10;94323.53;;;2.17;75.68
52249;BME280;38541;48.130;8.378;2024-01-27T01:55:39;94315.41;;;2.28;75.58
52249;BME280;38541;48.130;8.378;2024-01-27T01:58:05;94319.88;;;2.11;75.28
52249;BME280;38541;48.130;8.378;2024-01-27T02:00:32;94320.19;;;2.08;75.58
52249;BME280;38541;48.130;8.378;2024-01-27T02:02:59;94323.75;;;2.07;76.05
52249;BME280;38541;48.130;8.378;2024-01-27T02:05:26;94312.31;;;2.02;76.48
52249;BME280;38541;48.130;8.378;2024-01-27T02:07:52;94308.41;;;2.06;76.50
52249;BME280;38541;48.130;8.378;2024-01-27T02:10:22;94308.75;;;2.03;76.25
52249;BME280;38541;48.130;8.378;2024-01-27T02:12:49;94312.31;;;2.02;76.44
52249;BME280;38541;48.130;8.378;2024-01-27T02:15:15;94315.53;;;2.04;76.13
52249;BME280;38541;48.130;8.378;2024-01-27T02:17:42;94312.00;;;1.96;75.75
52249;BME280;38541;48.130;8.378;2024-01-27T02:20:09;94313.31;;;1.92;76.61
52249;BME280;38541;48.130;8.378;2024-01-27T02:22:36;94314.28;;;1.91;76.15
52249;BME280;38541;48.130;8.378;2024-01-27T02:25:03;94313.00;;;1.87;76.51
52249;BME280;38541;48.130;8.378;2024-01-27T02:27:29;94307.84;;;1.79;75.67
52249;BME280;38541;48.130;8.378;2024-01-27T02:29:56;94308.53;;;1.73;76.47
52249;BME280;38541;48.130;8.378;2024-01-27T02:32:23;94312.78;;;1.65;76.07
52249;BME280;38541;48.130;8.378;2024-01-27T02:34:49;94317.97;;;1.65;76.09
52249;BME280;38541;48.130;8.378;2024-01-27T02:37:17;94313.28;;;1.61;76.07
52249;BME280;38541;48.130;8.378;2024-01-27T02:39:43;94321.69;;;1.63;76.60
52249;BME280;38541;48.130;8.378;2024-01-27T02:42:10;94326.53;;;1.66;76.99
52249;BME280;38541;48.130;8.378;2024-01-27T02:44:36;94330.56;;;1.68;76.58
52249;BME280;38541;48.130;8.378;2024-01-27T02:47:03;94326.53;;;1.66;76.32
52249;BME280;38541;48.130;8.378;2024-01-27T02:49:29;94317.78;;;1.67;76.18
52249;BME280;38541;48.130;8.378;2024-01-27T02:51:56;94317.97;;;1.65;76.08
52249;BME280;38541;48.130;8.378;2024-01-27T02:54:22;94314.41;;;1.58;75.91
52249;BME280;38541;48.130;8.378;2024-01-27T02:56:49;94322.69;;;1.53;75.19
52249;BME280;38541;48.130;8.378;2024-01-27T02:59:16;94320.91;;;1.54;75.51
52249;BME280;38541;48.130;8.378;2024-01-27T03:01:42;94323.97;;;1.49;75.54
52249;BME280;38541;48.130;8.378;2024-01-27T03:04:09;94322.53;;;1.47;75.51
52249;BME280;38541;48.130;8.378;2024-01-27T03:06:35;94319.31;;;1.45;74.99
52249;BME280;38541;48.130;8.378;2024-01-27T03:09:02;94321.28;;;1.42;74.90
52249;BME280;38541;48.130;8.378;2024-01-27T03:11:28;94327.28;;;1.35;75.40
52249;BME280;38541;48.130;8.378;2024-01-27T03:13:55;94331.13;;;1.31;74.96
52249;BME280;38541;48.130;8.378;2024-01-27T03:16:21;94340.06;;;1.28;75.76
52249;BME280;38541;48.130;8.378;2024-01-27T03:18:47;94349.59;;;1.27;76.27
52249;BME280;38541;48.130;8.378;2024-01-27T03:21:14;94348.97;;;1.34;75.50
52249;BME280;38541;48.130;8.378;2024-01-27T03:23:41;94353.94;;;1.35;75.89
52249;BME280;38541;48.130;8.378;2024-01-27T03:26:07;94349.75;;;1.34;75.55
52249;BME280;38541;48.130;8.378;2024-01-27T03:28:34;94353.00;;;1.28;74.66
52249;BME280;38541;48.130;8.378;2024-01-27T03:31:00;94350.75;;;1.25;75.32
52249;BME280;38541;48.130;8.378;2024-01-27T03:33:27;94350.59;;;1.18;75.56
52249;BME280;38541;48.130;8.378;2024-01-27T03:35:56;94348.47;;;1.13;75.31
52249;BME280;38541;48.130;8.378;2024-01-27T03:38:22;94361.25;;;1.07;75.87
52249;BME280;38541;48.130;8.378;2024-01-27T03:40:49;94348.66;;;1.04;76.27
52249;BME280;38541;48.130;8.378;2024-01-27T03:43:16;94352.72;;;1.06;76.25
52249;BME280;38541;48.130;8.378;2024-01-27T03:45:42;94352.84;;;1.05;76.24
52249;BME280;38541;48.130;8.378;2024-01-27T03:48:09;94358.19;;;1.03;76.38
52249;BME280;38541;48.130;8.378;2024-01-27T03:50:36;94356.56;;;1.02;77.07
52249;BME280;38541;48.130;8.378;2024-01-27T03:53:02;94352.53;;;0.99;75.93
52249;BME280;38541;48.130;8.378;2024-01-27T03:55:29;94357.88;;;0.98;76.35
52249;BME280;38541;48.130;8.378;2024-01-27T03:57:55;94365.13;;;0.94;76.12
52249;BME280;38541;48.130;8.378;2024-01-27T04:00:22;94369.22;;;0.89;77.01
52249;BME280;38541;48.130;8.378;2024-01-27T04:02:49;94368.22;;;0.90;76.55
52249;BME280;38541;48.130;8.378;2024-01-27T04:05:15;94373.25;;;0.83;75.85
52249;BME280;38541;48.130;8.378;2024-01-27T04:07:42;94369.19;;;0.80;75.17
52249;BME280;38541;48.130;8.378;2024-01-27T04:10:09;94375.97;;;0.81;75.27
52249;BME280;38541;48.130;8.378;2024-01-27T04:12:35;94369.50;;;0.77;75.57
52249;BME280;38541;48.130;8.378;2024-01-27T04:15:02;94374.38;;;0.72;74.71
52249;BME280;38541;48.130;8.378;2024-01-27T04:17:28;94369.00;;;0.74;76.20
52249;BME280;38541;48.130;8.378;2024-01-27T04:19:55;94374.38;;;0.72;75.97
52249;BME280;38541;48.130;8.378;2024-01-27T04:22:22;94375.34;;;0.71;76.57
52249;BME280;38541;48.130;8.378;2024-01-27T04:24:48;94373.06;;;0.68;75.72
52249;BME280;38541;48.130;8.378;2024-01-27T04:27:15;94383.72;;;0.65;75.73
52249;BME280;38541;48.130;8.378;2024-01-27T04:29:41;94388.09;;;0.64;75.43
52249;BME280;38541;48.130;8.378;2024-01-27T04:32:08;94384.34;;;0.59;75.08
52249;BME280;38541;48.130;8.378;2024-01-27T04:34:34;94383.84;;;0.55;75.32
52249;BME280;38541;48.130;8.378;2024-01-27T04:37:01;94396.63;;;0.48;75.26
52249;BME280;38541;48.130;8.378;2024-01-27T04:39:27;94399.22;;;0.48;75.38
52249;BME280;38541;48.130;8.378;2024-01-27T04:41:54;94396.91;;;0.45;75.99
52249;BME280;38541;48.130;8.378;2024-01-27T04:44:21;94394.00;;;0.40;75.30
52249;BME280;38541;48.130;8.378;2024-01-27T04:46:47;94390.28;;;0.34;75.19
52249;BME280;38541;48.130;8.378;2024-01-27T04:49:15;94394.66;;;0.34;75.46
52249;BME280;38541;48.130;8.378;2024-01-27T04:51:42;94386.84;;;0.25;75.29
52249;BME280;38541;48.130;8.378;2024-01-27T04:54:09;94386.38;;;0.22;75.42
52249;BME280;38541;48.130;8.378;2024-01-27T04:56:36;94387.81;;;0.16;75.85
52249;BME280;38541;48.130;8.378;2024-01-27T04:59:03;94383.94;;;0.12;76.05
52249;BME280;38541;48.130;8.378;2024-01-27T05:01:29;94380.38;;;0.13;76.38
52249;BME280;38541;48.130;8.378;2024-01-27T05:03:56;94381.50;;;0.19;75.75
52249;BME280;38541;48.130;8.378;2024-01-27T05:06:22;94380.38;;;0.21;75.05
52249;BME280;38541;48.130;8.378;2024-01-27T05:08:49;94373.72;;;0.10;75.61
52249;BME280;38541;48.130;8.378;2024-01-27T05:11:25;94378.09;;;0.10;75.35
52249;BME280;38541;48.130;8.378;2024-01-27T05:13:52;94375.84;;;0.15;76.08
52249;BME280;38541;48.130;8.378;2024-01-27T05:16:18;94372.63;;;0.13;75.95
52249;BME280;38541;48.130;8.378;2024-01-27T05:18:44;94368.88;;;0.07;75.72
52249;BME280;38541;48.130;8.378;2024-01-27T05:21:11;94371.00;;;0.12;76.25
52249;BME280;38541;48.130;8.378;2024-01-27T05:23:38;94373.09;;;0.17;76.17
52249;BME280;38541;48.130;8.378;2024-01-27T05:26:05;94368.56;;;0.10;76.00
52249;BME280;38541;48.130;8.378;2024-01-27T05:28:32;94378.41;;;0.07;75.17
52249;BME280;38541;48.130;8.378;2024-01-27T05:30:59;94371.94;;;0.03;75.02
52249;BME280;38541;48.130;8.378;2024-01-27T05:33:26;94371.13;;;0.02;74.39
52249;BME280;38541;48.130;8.378;2024-01-27T05:35:52;94370.63;;;-0.02;73.96
52249;BME280;38541;48.130;8.378;2024-01-27T05:38:19;94371.84;;;-0.14;73.52
52249;BME280;38541;48.130;8.378;2024-01-27T05:40:45;94372.22;;;-0.09;74.34
52249;BME280;38541;48.130;8.378;2024-01-27T05:43:12;94362.34;;;-0.13;74.25
52249;BME280;38541;48.130;8.378;2024-01-27T05:45:38;94366.88;;;-0.16;75.06
52249;BME280;38541;48.130;8.378;2024-01-27T05:48:05;94369.44;;;-0.16;75.76
52249;BME280;38541;48.130;8.378;2024-01-27T05:50:32;94379.13;;;-0.18;75.90
52249;BME280;38541;48.130;8.378;2024-01-27T05:53:00;94374.41;;;-0.22;75.99
52249;BME280;38541;48.130;8.378;2024-01-27T05:55:27;94380.53;;;-0.23;76.84
52249;BME280;38541;48.130;8.378;2024-01-27T05:57:53;94369.19;;;-0.31;76.58
52249;BME280;38541;48.130;8.378;2024-01-27T06:00:21;94377.25;;;-0.34;77.51
52249;BME280;38541;48.130;8.378;2024-01-27T06:02:48;94372.09;;;-0.34;76.82
52249;BME280;38541;48.130;8.378;2024-01-27T06:05:15;94382.59;;;-0.35;76.70
52249;BME280;38541;48.130;8.378;2024-01-27T06:07:42;94383.38;;;-0.35;76.98
52249;BME280;38541;48.130;8.378;2024-01-27T06:10:09;94389.06;;;-0.31;77.08
52249;BME280;38541;48.130;8.378;2024-01-27T06:12:38;94387.00;;;-0.27;77.01
52249;BME280;38541;48.130;8.378;2024-01-27T06:15:05;94388.88;;;-0.30;76.74
52249;BME280;38541;48.130;8.378;2024-01-27T06:17:32;94402.13;;;-0.33;76.55
52249;BME280;38541;48.130;8.378;2024-01-27T06:19:59;94403.59;;;-0.30;76.47
52249;BME280;38541;48.130;8.378;2024-01-27T06:22:26;94412.13;;;-0.30;76.37
52249;BME280;38541;48.130;8.378;2024-01-27T06:24:52;94406.81;;;-0.28;76.82
52249;BME280;38541;48.130;8.378;2024-01-27T06:27:19;94404.34;;;-0.38;75.97
52249;BME280;38541;48.130;8.378;2024-01-27T06:29:45;94400.91;;;-0.47;75.46
52249;BME280;38541;48.130;8.378;2024-01-27T06:32:12;94411.22;;;-0.47;75.98
52249;BME280;38541;48.130;8.378;2024-01-27T06:34:39;94412.72;;;-0.44;75.69
52249;BME280;38541;48.130;8.378;2024-01-27T06:37:05;94412.72;;;-0.44;75.86
52249;BME280;38541;48.130;8.378;2024-01-27T06:39:32;94413.03;;;-0.47;75.62
52249;BME280;38541;48.130;8.378;2024-01-27T06:41:58;94412.81;;;-0.54;75.63
52249;BME280;38541;48.130;8.378;2024-01-27T06:44:25;94419.72;;;-0.54;75.53
52249;BME280;38541;48.130;8.378;2024-01-27T06:46:51;94412.00;;;-0.54;75.76
52249;BME280;38541;48.130;8.378;2024-01-27T06:49:18;94405.53;;;-0.59;75.43
52249;BME280;38541;48.130;8.378;2024-01-27T06:51:45;94403.91;;;-0.60;75.39
52249;BME280;38541;48.130;8.378;2024-01-27T06:54:11;94397.13;;;-0.61;75.07
52249;BME280;38541;48.130;8.378;2024-01-27T06:56:38;94401.16;;;-0.58;74.75
52249;BME280;38541;48.130;8.378;2024-01-27T06:59:05;94402.59;;;-0.64;74.25
52249;BME280;38541;48.130;8.378;2024-01-27T07:01:31;94401.75;;;-0.64;74.95
52249;BME280;38541;48.130;8.378;2024-01-27T07:03:58;94400.44;;;-0.68;74.92
52249;BME280;38541;48.130;8.378;2024-01-27T07:06:24;94403.16;;;-0.70;74.79
52249;BME280;38541;48.130;8.378;2024-01-27T07:08:51;94398.38;;;-0.65;75.56
52249;BME280;38541;48.130;8.378;2024-01-27T07:11:17;94406.03;;;-0.55;75.52
52249;BME280;38541;48.130;8.378;2024-01-27T07:13:44;94409.09;;;-0.51;75.47
52249;BME280;38541;48.130;8.378;2024-01-27T07:16:10;94404.75;;;-0.51;75.12
52249;BME280;38541;48.130;8.378;2024-01-27T07:18:37;94404.91;;;-0.52;75.11
52249;BME280;38541;48.130;8.378;2024-01-27T07:21:04;94403.59;;;-0.56;74.38
52249;BME280;38541;48.130;8.378;2024-01-27T07:23:34;94403.91;;;-0.60;74.03
52249;BME280;38541;48.130;8.378;2024-01-27T07:26:01;94402.28;;;-0.61;74.14
52249;BME280;38541;48.130;8.378;2024-01-27T07:28:29;94401.94;;;-0.66;73.14
52249;BME280;38541;48.130;8.378;2024-01-27T07:30:56;94404.13;;;-0.71;73.79
52249;BME280;38541;48.130;8.378;2024-01-27T07:33:23;94398.53;;;-0.66;73.32
52249;BME280;38541;48.130;8.378;2024-01-27T07:35:49;94402.72;;;-0.65;73.37
52249;BME280;38541;48.130;8.378;2024-01-27T07:38:16;94406.28;;;-0.66;73.59
52249;BME280;38541;48.130;8.378;2024-01-27T07:40:42;94410.47;;;-0.65;73.12
52249;BME280;38541;48.130;8.378;2024-01-27T07:43:09;94410.97;;;-0.62;73.58
52249;BME280;38541;48.130;8.378;2024-01-27T07:45:35;94407.13;;;-0.58;73.65
52249;BME280;38541;48.130;8.378;2024-01-27T07:48:02;94397.03;;;-0.51;73.73
52249;BME280;38541;48.130;8.378;2024-01-27T07:50:29;94400.69;;;-0.53;73.26
52249;BME280;38541;48.130;8.378;2024-01-27T07:52:56;94394.56;;;-0.52;73.47
52249;BME280;38541;48.130;8.378;2024-01-27T07:55:22;94389.28;;;-0.51;73.69
52249;BME280;38541;48.130;8.378;2024-01-27T07:57:49;94394.25;;;-0.49;73.40
52249;BME280;38541;48.130;8.378;2024-01-27T08:00:16;94392.84;;;-0.44;74.18
52249;BME280;38541;48.130;8.378;2024-01-27T08:02:43;94396.72;;;-0.48;73.69
52249;BME280;38541;48.130;8.378;2024-01-27T08:05:09;94398.47;;;-0.48;73.70
52249;BME280;38541;48.130;8.378;2024-01-27T08:07:36;94403.50;;;-0.47;74.27
52249;BME280;38541;48.130;8.378;2024-01-27T08:10:03;94409.97;;;-0.43;73.89
52249;BME280;38541;48.130;8.378;2024-01-27T08:12:31;94415.97;;;-0.34;74.68
52249;BME280;38541;48.130;8.378;2024-01-27T08:14:57;94416.63;;;-0.32;73.92
52249;BME280;38541;48.130;8.378;2024-01-27T08:17:24;94426.66;;;-0.29;74.14
52249;BME280;38541;48.130;8.378;2024-01-27T08:19:51;94432.66;;;-0.28;73.94
52249;BME280;38541;48.130;8.378;2024-01-27T08:22:18;94416.63;;;-0.32;74.58
52249;BME280;38541;48.130;8.378;2024-01-27T08:24:44;94411.03;;;-0.27;75.11
52249;BME280;38541;48.130;8.378;2024-01-27T08:27:11;94414.13;;;-0.23;75.80
52249;BME280;38541;48.130;8.378;2024-01-27T08:29:38;94415.78;;;-0.14;75.88
52249;BME280;38541;48.130;8.378;2024-01-27T08:32:04;94413.91;;;-0.04;75.93
52249;BME280;38541;48.130;8.378;2024-01-27T08:34:31;94404.22;;;0.07;75.84
52249;BME280;38541;48.130;8.378;2024-01-27T08:37:00;94400.56;;;0.18;75.99
52249;BME280;38541;48.130;8.378;2024-01-27T08:39:27;94406.56;;;0.26;75.85
52249;BME280;38541;48.130;8.378;2024-01-27T08:41:54;94412.69;;;0.25;75.21
52249;BME280;38541;48.130;8.378;2024-01-27T08:44:20;94408.88;;;0.30;75.67
52249;BME280;38541;48.130;8.378;2024-01-27T08:46:47;94402.88;;;0.29;75.51
52249;BME280;38541;48.130;8.378;2024-01-27T08:49:14;94408.88;;;0.30;75.37
52249;BME280;38541;48.130;8.378;2024-01-27T08:51:40;94402.88;;;0.29;75.58
52249;BME280;38541;48.130;8.378;2024-01-27T08:54:07;94400.00;;;0.40;74.91
52249;BME280;38541;48.130;8.378;2024-01-27T08:56:33;94410.81;;;0.44;75.01
52249;BME280;38541;48.130;8.378;2024-01-27T08:59:00;94410.34;;;0.49;75.00
52249;BME280;38541;48.130;8.378;2024-01-27T09:01:26;94412.31;;;0.55;75.40
52249;BME280;38541;48.130;8.378;2024-01-27T09:03:53;94407.16;;;0.63;74.90
52249;BME280;38541;48.130;8.378;2024-01-27T09:06:20;94409.44;;;0.75;75.17
52249;BME280;38541;48.130;8.378;2024-01-27T09:08:47;94401.38;;;0.86;75.04
52249;BME280;38541;48.130;8.378;2024-01-27T09:11:14;94401.53;;;0.93;75.81
52249;BME280;38541;48.130;8.378;2024-01-27T09:13:40;94402.50;;;1.00;75.54
52249;BME280;38541;48.130;8.378;2024-01-27T09:16:07;94406.25;;;0.97;76.04
52249;BME280;38541;48.130;8.378;2024-01-27T09:18:34;94412.72;;;1.02;75.92
52249;BME280;38541;48.130;8.378;2024-01-27T09:21:00;94406.56;;;1.11;75.92
52249;BME280;38541;48.130;8.378;2024-01-27T09:23:27;94408.34;;;1.19;75.83
52249;BME280;38541;48.130;8.378;2024-01-27T09:25:54;94414.16;;;1.29;76.23
52249;BME280;38541;48.130;8.378;2024-01-27T09:28:20;94398.47;;;1.39;75.80
52249;BME280;38541;48.130;8.378;2024-01-27T09:30:47;94395.38;;;1.35;75.44
52249;BME280;38541;48.130;8.378;2024-01-27T09:33:13;94391.50;;;1.39;75.51
52249;BME280;38541;48.130;8.378;2024-01-27T09:35:40;94396.34;;;1.51;76.15
52249;BME280;38541;48.130;8.378;2024-01-27T09:38:07;94404.09;;;1.59;75.95
52249;BME280;38541;48.130;8.378;2024-01-27T09:40:35;94404.72;;;1.69;75.96
52249;BME280;38541;48.130;8.378;2024-01-27T09:43:02;94406.97;;;1.81;76.66
52249;BME280;38541;48.130;8.378;2024-01-27T09:45:29;94408.41;;;1.92;76.78
52249;BME280;38541;48.130;8.378;2024-01-27T09:47:56;94414.19;;;2.02;76.91
52249;BME280;38541;48.130;8.378;2024-01-27T09:50:24;94424.38;;;2.12;76.09
52249;BME280;38541;48.130;8.378;2024-01-27T09:52:51;94421.75;;;2.20;76.83
52249;BME280;38541;48.130;8.378;2024-01-27T09:55:18;94412.66;;;2.24;76.18
52249;BME280;38541;48.130;8.378;2024-01-27T09:57:45;94407.28;;;2.34;76.99
52249;BME280;38541;48.130;8.378;2024-01-27T10:00:13;94409.03;;;2.42;76.65
52249;BME280;38541;48.130;8.378;2024-01-27T10:02:40;94400.84;;;2.53;76.79
52249;BME280;38541;48.130;8.378;2024-01-27T10:05:09;94398.22;;;2.62;76.57
52249;BME280;38541;48.130;8.378;2024-01-27T10:07:35;94402.38;;;2.71;77.43
52249;BME280;38541;48.130;8.378;2024-01-27T10:10:03;94400.09;;;2.76;77.51
52249;BME280;38541;48.130;8.378;2024-01-27T10:12:30;94393.84;;;2.85;77.43
52249;BME280;38541;48.130;8.378;2024-01-27T10:14:57;94396.06;;;2.97;77.20
52249;BME280;38541;48.130;8.378;2024-01-27T10:17:24;94386.34;;;3.14;77.39
52249;BME280;38541;48.130;8.378;2024-01-27T10:20:00;94388.66;;;3.32;77.52
52249;BME280;38541;48.130;8.378;2024-01-27T10:22:27;94379.44;;;3.45;77.24
52249;BME280;38541;48.130;8.378;2024-01-27T10:24:54;94374.34;;;3.66;77.15
52249;BME280;38541;48.130;8.378;2024-01-27T10:27:22;94377.84;;;3.89;77.16
52249;BME280;38541;48.130;8.378;2024-01-27T10:29:55;94374.44;;;4.03;76.06
52249;BME280;38541;48.130;8.378;2024-01-27T10:32:21;94370.09;;;4.25;75.82
52249;BME280;38541;48.130;8.378;2024-01-27T10:35:04;94373.31;;;4.42;74.84
52249;BME280;38541;48.130;8.378;2024-01-27T10:37:31;94361.50;;;4.62;74.43
52249;BME280;38541;48.130;8.378;2024-01-27T10:40:02;94373.22;;;4.72;73.44
52249;BME280;38541;48.130;8.378;2024-01-27T10:42:29;94371.75;;;4.85;71.85
52249;BME280;38541;48.130;8.378;2024-01-27T10:44:59;94373.06;;;4.96;70.88
52249;BME280;38541;48.130;8.378;2024-01-27T10:47:30;94377.72;;;5.00;68.54
52249;BME280;38541;48.130;8.378;2024-01-27T10:49:58;94372.81;;;5.12;67.99
52249;BME280;38541;48.130;8.378;2024-01-27T10:52:31;94374.94;;;5.24;67.85
52249;BME280;38541;48.130;8.378;2024-01-27T10:55:02;94372.41;;;5.37;67.51
52249;BME280;38541;48.130;8.378;2024-01-27T10:57:30;94359.88;;;5.48;68.93
52249;BME280;38541;48.130;8.378;2024-01-27T10:59:57;94355.50;;;5.55;68.64
52249;BME280;38541;48.130;8.378;2024-01-27T11:02:24;94366.19;;;5.67;69.11
52249;BME280;38541;48.130;8.378;2024-01-27T11:04:51;94353.22;;;5.74;68.94
52249;BME280;38541;48.130;8.378;2024-01-27T11:07:21;94346.06;;;5.89;69.27
52249;BME280;38541;48.130;8.378;2024-01-27T11:09:50;94345.72;;;5.99;68.79
52249;BME280;38541;48.130;8.378;2024-01-27T11:12:19;94348.22;;;6.07;69.10
52249;BME280;38541;48.130;8.378;2024-01-27T11:14:47;94341.66;;;6.18;68.93
52249;BME280;38541;48.130;8.378;2024-01-27T11:17:15;94340.47;;;6.27;69.26
52249;BME280;38541;48.130;8.378;2024-01-27T11:19:44;94332.47;;;6.36;68.57
52249;BME280;38541;48.130;8.378;2024-01-27T11:27:41;94330.75;;;6.63;67.68
52249;BME280;38541;48.130;8.378;2024-01-27T11:30:30;94337.19;;;6.74;66.59
52249;BME280;38541;48.130;8.378;2024-01-27T11:33:03;94336.59;;;6.85;66.92
52249;BME280;38541;48.130;8.378;2024-01-27T11:35:31;94340.66;;;6.95;67.08
52249;BME280;38541;48.130;8.378;2024-01-27T11:37:58;94338.44;;;7.05;66.51
52249;BME280;38541;48.130;8.378;2024-01-27T11:40:24;94346.28;;;7.19;66.34
52249;BME280;38541;48.130;8.378;2024-01-27T11:42:55;94343.09;;;7.30;65.31
52249;BME280;38541;48.130;8.378;2024-01-27T11:45:22;94345.28;;;7.40;64.45
52249;BME280;38541;48.130;8.378;2024-01-27T11:47:49;94329.38;;;7.48;64.51
52249;BME280;38541;48.130;8.378;2024-01-27T11:50:19;94322.56;;;7.54;63.88
52249;BME280;38541;48.130;8.378;2024-01-27T11:52:47;94328.16;;;7.64;62.05
52249;BME280;38541;48.130;8.378;2024-01-27T11:55:14;94321.31;;;7.77;62.36
52249;BME280;38541;48.130;8.378;2024-01-27T11:57:41;94331.16;;;7.88;62.90
52249;BME280;38541;48.130;8.378;2024-01-27T12:00:08;94325.09;;;7.94;62.17
52249;BME280;38541;48.130;8.378;2024-01-27T12:02:38;94327.88;;;8.06;62.21
52249;BME280;38541;48.130;8.378;2024-01-27T12:05:05;94322.78;;;8.18;60.86
52249;BME280;38541;48.130;8.378;2024-01-27T12:07:32;94326.97;;;8.33;59.93
52249;BME280;38541;48.130;8.378;2024-01-27T12:09:59;94329.94;;;8.43;60.84
52249;BME280;38541;48.130;8.378;2024-01-27T12:12:26;94323.47;;;8.52;59.82
52249;BME280;38541;48.130;8.378;2024-01-27T12:14:52;94323.78;;;8.69;60.47
52249;BME280;38541;48.130;8.378;2024-01-27T12:17:20;94324.16;;;8.73;58.53
52249;BME280;38541;48.130;8.378;2024-01-27T12:19:51;94309.59;;;8.84;59.29
52249;BME280;38541;48.130;8.378;2024-01-27T12:22:25;94311.34;;;8.90;60.03
52249;BME280;38541;48.130;8.378;2024-01-27T12:24:55;94316.13;;;9.00;59.57
52249;BME280;38541;48.130;8.378;2024-01-27T12:27:22;94314.47;;;9.06;59.22
52249;BME280;38541;48.130;8.378;2024-01-27T12:29:49;94309.97;;;9.20;60.79
52249;BME280;38541;48.130;8.378;2024-01-27T12:32:17;94308.31;;;9.19;59.58
52249;BME280;38541;48.130;8.378;2024-01-27T12:34:44;94302.25;;;9.25;59.15
52249;BME280;38541;48.130;8.378;2024-01-27T12:37:16;94302.88;;;9.46;58.05
52249;BME280;38541;48.130;8.378;2024-01-27T12:39:43;94295.16;;;9.51;57.95
52249;BME280;38541;48.130;8.378;2024-01-27T12:42:11;94294.44;;;9.62;56.70
52249;BME280;38541;48.130;8.378;2024-01-27T12:44:38;94290.38;;;9.66;55.84
52249;BME280;38541;48.130;8.378;2024-01-27T12:47:05;94296.91;;;9.76;57.43
52249;BME280;38541;48.130;8.378;2024-01-27T12:49:32;94298.06;;;9.87;56.86
52249;BME280;38541;48.130;8.378;2024-01-27T12:51:59;94295.19;;;9.88;56.73
52249;BME280;38541;48.130;8.378;2024-01-27T12:54:25;94294.59;;;9.86;55.24
52249;BME280;38541;48.130;8.378;2024-01-27T12:56:52;94289.56;;;9.84;55.61
52249;BME280;38541;48.130;8.378;2024-01-27T12:59:20;94285.94;;;9.85;56.14
52249;BME280;38541;48.130;8.378;2024-01-27T13:01:47;94280.03;;;9.90;53.66
52249;BME280;38541;48.130;8.378;2024-01-27T13:04:13;94277.69;;;10.01;52.69
52249;BME280;38541;48.130;8.378;2024-01-27T13:06:41;94276.38;;;10.10;52.45
52249;BME280;38541;48.130;8.378;2024-01-27T13:09:08;94273.44;;;10.18;51.85
52249;BME280;38541;48.130;8.378;2024-01-27T13:11:38;94272.72;;;10.11;51.54